Relevés horaires St-Hubert (Belgique)


Relevés horaires à St-Hubert - Lundi 16 Juill. 2018
Heure UTC1 Température [°C] Vent [km/h] Hum. [%] Pres.4 [hPa] Visi. [Km] Nébu. [octa] Préc.5 [mm] Cond.
2m. Res. Ros. Dir.2 Vit. Moy. Raf.3
23:00 18.5 18.5 9.4 NNO 0.0 0.0 0.0 55 1014.2(0.7/3h) 45 0/8 -- --
22:00 18.8 18.8 10.3 NNO 0.0 0.0 0.0 58 1014(1.2/3h) 45 0/8 -- --
21:00 19.6 19.6 9.5 NNO 0.0 0.0 0.0 52 1013.7(1.6/3h) 45 0/8 -- --
20:00 19.6 19.6 10.1 NNO 0.0 0.0 0.0 54 1013.2(1.2/3h) 45 0/8 -- --
19:00 23.2 23.2 4.1 NNO 0.0 0.0 0.0 29 1011.9(0.5/3h) 40 0/8 -- --
18:00 24.9 24.9 2.2 NNO 0.0 0.0 0.0 23 1011(-0.2/3h) 35 0/8 0/12h
--
17:00 26.0 26.0 2.4 NNO 0.0 0.0 0.0 22 1010.7(-0.5/3h) 35 0/8 -- --
16:00 25.9 25.9 4.3 NNO 0.0 0.0 0.0 25 1010.8(-0.8/3h) 40 0/8 -- --
15:00 25.5 25.5 3.2 NNO 0.0 0.0 0.0 24 1011.1(-1.0/3h) 35 0/8 -- --
14:00 26.0 26.0 5.5 NNO 0.0 0.0 0.0 27 1011.1(-1.0/3h) 40 0/8 -- --
13:00 25.1 25.1 6.0 NNO 0.0 0.0 0.0 29 1011.7(-0.8/3h) 35 0/8 -- --
12:00 24.0 24.0 5.3 NNO 0.0 0.0 0.0 30 1012.4(-0.4/3h) 40 0/8 0/6h
--
11:00 23.9 23.9 6.4 NNO 0.0 0.0 0.0 32 1012.6(-0.3/3h) 35 0/8 -- --
10:00 23.6 23.6 7.4 NNO 0.0 0.0 0.0 35 1012.9(0.2/3h) 30 0/8 -- --
09:00 22.8 22.8 6.7 NNO 0.0 0.0 0.0 35 1013.1(0.0/3h) 35 0/8 -- --
08:00 21.5 21.5 10.5 NNO 0.0 0.0 0.0 50 1013.3(0.0/3h) 30 0/8 -- --
07:00 18.8 18.8 12.3 NNO 0.0 0.0 0.0 66 1014(0.0/3h) 40 0/8 -- --
06:00 17.1 17.1 12.0 NNO 0.0 0.0 0.0 72 1014.3(0.1/3h) 35 0/8 0/12h
--
05:00 16.1 16.1 10.6 NNO 0.0 0.0 0.0 70 1014.5(-0.4/3h) 45 0/8 -- --
04:00 15.4 15.4 10.4 NNO 0.0 0.0 0.0 72 1014.8(-0.4/3h) 45 0/8 -- --
03:00 14.8 14.8 10.3 NNO 0.0 0.0 0.0 74 1014.9(-0.8/3h) 45 0/8 -- --
02:00 16.0 16.0 11.9 NNO 0.0 0.0 0.0 77 1014.9(-0.6/3h) 45 0/8 -- --
01:00 15.5 15.5 11.6 NNO 0.0 0.0 0.0 78 1015.2(-0.5/3h) 45 0/8 -- --
00:00 18.2 18.2 11.3 NNO 0.0 0.0 0.0 64 1014.9(-0.3/3h) 40 0/8 0/6h
0/24h
--

1 Coordinated Universal Time. Actuellement il est 17:00 locale et 15:00 UTC.

2 Le vent souffle depuis la direction indiquée vers la direction oposée.

3 Les rafales max. sont disponible 40 min après l'heure du relevé.

4 Pour les stations d'altitude (plus de 600m) le géopotentiel du niveau le plus proche de la pression obligatoire est indiqué.

5 Les stations disposant d'un diffuseur peuvent indiquer "trace". Cela signifie que des précipitations ont touchés le sol mais que la quantité est inférieure à 0.1 mm.

Récapitulatif de la journée
Température [°C] Vent [km/h] Ensoleillement4 [h] Precipitations totale5 [mm] Pression [Hpa]
Min1 Max.2 Moy.3 Max. Min Max.
13.3 26.6 0 0.0 0 h 0 min 0 1010.7 1015.2

1 Température minimale relevée entre 18:00 UTC la veille et 18:00 UTC le jour donné.

2 Température maximale relevée entre 06:00 UTC le jour donné et 06:00 UTC le lendemain.

3 Vent moyen de la journée basé sur les relevés horaires.

4 Ensoleillement en heures relevé entre 06:00 UTC la veille et 06:00 UTC le jour donné.

5 Précipitations totales tombées entre 06:00 UTC la jour donné et 06:00 UTC le lendemain.

Graphiques horaires